createdAt,value
2022-08-25T00:02:37.837Z,19.00
2022-08-25T00:07:41.833Z,18.80
2022-08-25T00:12:45.130Z,18.80
2022-08-25T00:17:50.642Z,18.60
2022-08-25T00:22:53.861Z,18.60
2022-08-25T00:28:03.077Z,18.70
2022-08-25T00:33:11.477Z,18.80
2022-08-25T00:38:15.363Z,18.80
2022-08-25T00:43:18.741Z,18.50
2022-08-25T00:48:23.971Z,18.60
2022-08-25T00:53:27.319Z,18.50
2022-08-25T00:58:31.203Z,18.30
2022-08-25T01:03:36.229Z,18.10
2022-08-25T01:08:40.075Z,18.00
2022-08-25T01:13:45.166Z,17.80
2022-08-25T01:18:50.785Z,17.60
2022-08-25T01:23:58.234Z,17.70
2022-08-25T01:29:20.660Z,17.80
2022-08-25T01:34:24.555Z,17.80
2022-08-25T01:39:30.367Z,17.80
2022-08-25T01:44:35.030Z,17.70
2022-08-25T01:49:39.476Z,17.50
2022-08-25T01:54:44.540Z,17.40
2022-08-25T01:59:48.313Z,17.30
2022-08-25T02:04:51.434Z,17.30
2022-08-25T02:09:57.044Z,17.10
2022-08-25T02:15:02.989Z,17.00
2022-08-25T02:20:06.931Z,16.90
2022-08-25T02:25:13.703Z,16.90
2022-08-25T02:30:18.698Z,16.90
2022-08-25T02:35:25.230Z,16.80
2022-08-25T02:40:30.544Z,16.70
2022-08-25T02:45:33.714Z,16.70
2022-08-25T02:50:38.107Z,16.60
2022-08-25T02:55:42.945Z,16.60
2022-08-25T03:00:46.541Z,16.60
2022-08-25T03:05:53.163Z,16.40
2022-08-25T03:10:58.263Z,16.40
2022-08-25T03:16:01.801Z,16.30
2022-08-25T03:21:06.531Z,16.30
2022-08-25T03:26:32.605Z,16.20
2022-08-25T03:31:36.695Z,16.20
2022-08-25T03:36:40.044Z,16.20
2022-08-25T03:41:44.992Z,16.40
2022-08-25T03:46:49.671Z,16.50
2022-08-25T03:51:55.800Z,16.40
2022-08-25T03:57:00.387Z,16.30
2022-08-25T04:02:03.692Z,16.20
2022-08-25T04:07:07.742Z,16.10
2022-08-25T04:12:12.603Z,16.10
2022-08-25T04:17:20.452Z,16.10
2022-08-25T04:22:23.702Z,15.90
2022-08-25T04:27:29.851Z,15.80
2022-08-25T04:32:33.519Z,16.00
2022-08-25T04:37:37.247Z,15.80
2022-08-25T04:42:41.806Z,15.60
2022-08-25T04:47:45.065Z,15.50
2022-08-25T04:52:49.447Z,15.50
2022-08-25T04:57:55.424Z,15.50
2022-08-25T05:02:59.125Z,15.50
2022-08-25T05:08:02.714Z,15.50
2022-08-25T05:13:07.486Z,15.40
2022-08-25T05:18:10.838Z,15.50
2022-08-25T05:23:15.350Z,15.60
2022-08-25T05:28:24.281Z,15.70
2022-08-25T05:33:27.596Z,15.90
2022-08-25T05:38:35.398Z,16.10
2022-08-25T05:43:40.082Z,16.20
2022-08-25T05:48:43.238Z,16.40
2022-08-25T05:53:49.359Z,16.50
2022-08-25T05:58:53.835Z,16.60
2022-08-25T06:03:57.199Z,16.70
2022-08-25T06:09:00.433Z,16.80
2022-08-25T06:14:05.388Z,16.90
2022-08-25T06:19:08.908Z,17.40
2022-08-25T06:24:15.553Z,17.90
2022-08-25T06:29:21.159Z,18.30
2022-08-25T06:34:24.524Z,18.70
2022-08-25T06:39:28.109Z,19.40
2022-08-25T06:44:32.569Z,19.80
2022-08-25T06:49:36.359Z,20.00
2022-08-25T06:54:40.445Z,20.50
2022-08-25T06:59:45.333Z,21.00
2022-08-25T07:04:48.908Z,21.20
2022-08-25T07:09:51.901Z,21.60
2022-08-25T07:15:17.084Z,22.00
2022-08-25T07:20:20.262Z,22.40
2022-08-25T07:25:24.225Z,22.70
2022-08-25T07:30:29.285Z,23.30
2022-08-25T07:35:37.575Z,24.10
2022-08-25T07:40:42.950Z,24.40
2022-08-25T07:51:14.335Z,25.30
2022-08-25T07:56:18.829Z,26.50
2022-08-25T08:01:24.264Z,27.00
2022-08-25T08:06:29.168Z,27.30
2022-08-25T08:11:34.571Z,27.40
2022-08-25T08:16:39.705Z,28.00
2022-08-25T08:21:43.147Z,28.10
2022-08-25T08:26:58.720Z,28.40
2022-08-25T08:32:03.974Z,29.00
2022-08-25T08:37:10.388Z,29.10
2022-08-25T08:42:25.169Z,30.30
2022-08-25T08:47:37.089Z,30.40
2022-08-25T08:52:46.043Z,30.90
2022-08-25T08:57:55.682Z,31.10
2022-08-25T09:03:04.053Z,31.50
2022-08-25T09:08:11.826Z,31.70
2022-08-25T09:13:18.147Z,32.20
2022-08-25T09:18:27.860Z,32.50
2022-08-25T09:23:40.002Z,32.70
2022-08-25T09:28:48.904Z,32.40
2022-08-25T09:33:58.090Z,33.40
2022-08-25T09:39:01.365Z,34.20
2022-08-25T09:44:06.933Z,33.10
2022-08-25T09:49:16.747Z,33.70
2022-08-25T09:54:25.388Z,34.10
2022-08-25T09:59:35.912Z,34.80
2022-08-25T10:04:41.009Z,34.80
2022-08-25T10:09:45.087Z,34.90
2022-08-25T10:14:49.335Z,34.30
2022-08-25T10:20:17.384Z,34.80
2022-08-25T10:25:23.279Z,35.00
2022-08-25T10:30:31.403Z,35.30
2022-08-25T10:35:40.546Z,36.20
2022-08-25T10:40:45.809Z,36.10
2022-08-25T10:45:51.361Z,36.30
2022-08-25T10:50:59.640Z,36.10
2022-08-25T10:56:07.943Z,35.10
2022-08-25T11:01:18.444Z,35.00
2022-08-25T11:06:24.762Z,35.80
2022-08-25T11:11:35.051Z,36.00
2022-08-25T11:16:41.732Z,35.90
2022-08-25T11:21:51.293Z,36.20
2022-08-25T11:26:57.244Z,36.00
2022-08-25T11:32:00.484Z,37.00
2022-08-25T11:37:11.246Z,36.20
2022-08-25T11:42:19.325Z,37.00
2022-08-25T11:47:55.745Z,37.30
2022-08-25T11:53:01.412Z,37.20
2022-08-25T11:58:22.465Z,38.70
2022-08-25T12:03:51.029Z,37.80
2022-08-25T12:09:20.592Z,37.50
2022-08-25T12:14:47.994Z,36.20
2022-08-25T12:19:56.824Z,36.80
2022-08-25T12:25:03.518Z,36.70
2022-08-25T12:30:20.807Z,36.70
2022-08-25T12:35:30.616Z,36.90
2022-08-25T12:40:39.195Z,37.90
2022-08-25T12:45:44.325Z,38.00
2022-08-25T12:50:50.358Z,38.00
2022-08-25T12:55:58.135Z,38.80
2022-08-25T13:01:17.382Z,38.20
2022-08-25T13:06:40.847Z,38.30
2022-08-25T13:11:49.725Z,38.90
2022-08-25T13:16:56.263Z,39.10
2022-08-25T13:22:00.101Z,38.40
2022-08-25T13:27:07.807Z,38.70
2022-08-25T13:32:38.298Z,38.80
2022-08-25T13:37:44.154Z,38.80
2022-08-25T13:42:55.635Z,39.50
2022-08-25T13:48:00.584Z,39.40
2022-08-25T13:53:11.352Z,39.20
2022-08-25T13:58:17.466Z,39.50
2022-08-25T14:03:31.698Z,38.70
2022-08-25T14:08:38.611Z,38.80
2022-08-25T14:13:43.690Z,38.70
2022-08-25T14:18:48.509Z,40.20
2022-08-25T14:23:52.120Z,39.00
2022-08-25T14:28:56.986Z,39.00
2022-08-25T14:34:02.893Z,38.50
2022-08-25T14:39:08.917Z,38.80
2022-08-25T14:44:14.224Z,38.20
2022-08-25T14:49:24.814Z,38.50
2022-08-25T14:54:28.874Z,39.10
2022-08-25T14:59:34.231Z,39.30
2022-08-25T15:04:37.524Z,39.00
2022-08-25T15:09:40.895Z,38.40
2022-08-25T15:14:45.729Z,39.20
2022-08-25T15:19:49.833Z,40.60
2022-08-25T15:24:53.009Z,40.00
2022-08-25T15:29:57.456Z,39.00
2022-08-25T15:35:01.440Z,39.00
2022-08-25T15:40:05.360Z,38.30
2022-08-25T15:45:12.761Z,38.10
2022-08-25T15:50:24.169Z,38.00
2022-08-25T15:55:29.346Z,37.70
2022-08-25T16:00:34.104Z,38.50
2022-08-25T16:05:39.054Z,38.40
2022-08-25T16:10:44.774Z,37.70
2022-08-25T16:15:54.256Z,38.50
2022-08-25T16:20:57.952Z,37.90
2022-08-25T16:26:01.629Z,37.60
2022-08-25T16:31:09.635Z,37.30
2022-08-25T16:36:15.789Z,37.80
2022-08-25T16:41:21.301Z,37.70
2022-08-25T16:46:27.054Z,37.50
2022-08-25T16:51:32.540Z,37.10
2022-08-25T16:56:42.444Z,36.50
2022-08-25T17:01:48.568Z,35.80
2022-08-25T17:06:54.106Z,35.50
2022-08-25T17:11:57.607Z,35.30
2022-08-25T17:17:07.087Z,34.40
2022-08-25T17:22:14.656Z,31.40
2022-08-25T17:27:23.728Z,28.70
2022-08-25T17:32:30.389Z,25.90
2022-08-25T17:37:34.431Z,24.90
2022-08-25T17:42:39.803Z,24.40
2022-08-25T17:47:45.021Z,23.50
2022-08-25T17:52:48.181Z,23.20
2022-08-25T17:57:51.341Z,23.50
2022-08-25T18:02:57.214Z,23.60
2022-08-25T18:08:00.495Z,23.90
2022-08-25T18:13:06.942Z,24.10
2022-08-25T18:18:12.463Z,24.50
2022-08-25T18:23:16.505Z,25.00
2022-08-25T18:28:26.494Z,25.50
2022-08-25T18:33:31.768Z,25.90
2022-08-25T18:38:58.220Z,26.60
2022-08-25T18:44:02.538Z,27.10
2022-08-25T18:49:08.571Z,27.40
2022-08-25T18:54:22.792Z,27.60
2022-08-25T18:59:27.066Z,27.50
2022-08-25T19:04:32.655Z,27.50
2022-08-25T19:09:36.201Z,27.40
2022-08-25T19:14:40.243Z,27.20
2022-08-25T19:19:44.776Z,26.60
2022-08-25T19:24:51.743Z,26.20
2022-08-25T19:29:55.178Z,26.10
2022-08-25T19:35:00.790Z,26.00
2022-08-25T19:40:04.672Z,25.80
2022-08-25T19:45:08.833Z,26.00
2022-08-25T19:50:14.770Z,25.90
2022-08-25T19:55:21.041Z,26.00
2022-08-25T20:00:28.593Z,26.20
2022-08-25T20:05:36.440Z,26.00
2022-08-25T20:10:41.878Z,25.20
2022-08-25T20:15:46.216Z,24.80
2022-08-25T20:20:50.906Z,24.60
2022-08-25T20:25:54.446Z,24.40
2022-08-25T20:30:59.451Z,24.40
2022-08-25T20:36:05.665Z,24.00
2022-08-25T20:41:10.685Z,23.60
2022-08-25T20:46:14.749Z,23.30
2022-08-25T20:51:23.537Z,23.30
2022-08-25T20:56:29.834Z,23.20
2022-08-25T21:01:39.703Z,23.10
2022-08-25T21:06:45.450Z,22.80
2022-08-25T21:11:48.779Z,22.80
2022-08-25T21:16:53.282Z,22.80
2022-08-25T21:21:59.757Z,22.70
2022-08-25T21:27:04.625Z,22.40
2022-08-25T21:32:08.208Z,22.40
2022-08-25T21:37:14.328Z,22.60
2022-08-25T21:42:17.798Z,22.60
2022-08-25T21:47:21.693Z,22.60
2022-08-25T21:52:28.274Z,22.50
2022-08-25T21:57:33.465Z,22.40
2022-08-25T22:02:40.502Z,22.30
2022-08-25T22:07:48.676Z,22.20
2022-08-25T22:12:52.950Z,22.10
2022-08-25T22:17:56.293Z,22.10
2022-08-25T22:23:01.401Z,22.10
2022-08-25T22:28:05.450Z,21.80
2022-08-25T22:33:09.112Z,21.70
2022-08-25T22:38:13.854Z,21.60
2022-08-25T22:43:17.332Z,21.50
2022-08-25T22:48:25.293Z,21.30
2022-08-25T22:53:30.562Z,21.20
2022-08-25T22:58:34.663Z,21.10
2022-08-25T23:03:44.395Z,21.10
2022-08-25T23:08:50.180Z,20.90
2022-08-25T23:13:55.813Z,20.80
2022-08-25T23:18:59.125Z,20.90
2022-08-25T23:24:04.673Z,20.70
2022-08-25T23:29:37.117Z,20.90
2022-08-25T23:34:41.615Z,20.80
2022-08-25T23:39:49.813Z,20.60
2022-08-25T23:44:54.635Z,20.40
2022-08-25T23:50:02.797Z,20.40
2022-08-25T23:55:07.806Z,20.40
